x

9063020 - Buffalo, Ny (bufn6) Weather Station

2:30am - Sun 2nd Aug 2015 All times are CDT. -5 hours from GMT.

  • Wind
    9mph, 13mph gusts
  • Air Temp 72°f
  • Sea Pressure 1010.5mb
  • 9063020 - Buffalo, Ny
  • 9063020 - Buffalo, Ny

More Historic Weather Station data

Upgrade to MSW Pro to gain access to the past 30 days of data for over 8000 Wavebouys and Weather Stations around the globe.

Join Pro

Comparision Forecast

View Surf forecast
   
Sun 08/02 2:30am 9 13 mph 1010.5mb 72f
2:24am 10 13 mph 1010.5mb 72f
2:18am 9 10 mph 1010.5mb 72f
2:12am 8 13 mph 1010.5mb 72f
2:06am 11 13 mph 1010.5mb 72f
2:00am 10 13 mph 1010.5mb 72f
1:54am 9 11 mph 1010.5mb 72f
1:42am 10 13 mph 1010.5mb -
1:36am 10 13 mph 1010.5mb -
1:30am 9 11 mph 1010.6mb 71f
1:24am 9 11 mph 1010.5mb 71f
1:18am 9 14 mph 1010.6mb 71f
1:12am 11 13 mph 1010.6mb 72f
1:06am 11 14 mph 1010.7mb 72f
1:00am 13 14 mph 1010.7mb 71f
12:54am 10 13 mph 1010.8mb 72f
12:48am 11 14 mph 1010.8mb 72f
12:42am 11 14 mph 1010.8mb 72f
12:36am 11 14 mph 1010.8mb 72f
12:30am 10 13 mph 1010.7mb 72f
12:24am 9 11 mph 1010.8mb 72f
12:18am 11 14 mph 1010.8mb 73f
12:12am 11 15 mph 1010.8mb 73f
12:06am 10 14 mph 1010.8mb 73f
12:00am 13 14 mph 1010.8mb 73f
Sat 08/01 11:54pm 13 14 mph 1010.8mb 73f
11:48pm 11 14 mph 1010.8mb 73f
11:42pm 9 14 mph 1010.8mb 73f
11:36pm 9 13 mph 1010.8mb 73f
11:30pm 13 15 mph 1010.8mb 74f
11:24pm 13 15 mph 1010.8mb 73f
11:18pm 8 10 mph 1010.8mb 73f
11:12pm 8 10 mph 1010.9mb 72f
11:06pm 8 9 mph 1010.9mb 72f
11:00pm 7 10 mph 1010.9mb 72f
10:54pm 8 11 mph 1010.9mb 72f
10:48pm 9 10 mph 1010.9mb -
10:42pm 9 10 mph 1010.9mb -
10:36pm 8 10 mph 1011mb -
10:30pm 9 11 mph 1011mb 72f
10:24pm 9 11 mph 1011mb 72f
10:18pm 9 13 mph 1011mb 72f
10:12pm 9 11 mph 1011mb 72f
10:06pm 9 11 mph 1011mb 73f
10:00pm 10 14 mph 1010.9mb 73f
9:54pm 11 14 mph 1010.9mb 73f
9:48pm 11 16 mph 1010.9mb 73f
9:42pm 13 16 mph 1011mb 73f
9:36pm 15 17 mph 1011mb 73f
9:30pm 17 20 mph 1011mb 73f
9:24pm 16 20 mph 1011mb 73f
9:18pm 15 20 mph 1011.1mb 73f
9:12pm 17 20 mph 1011.1mb 73f
9:06pm 18 20 mph 1011.1mb 73f
9:00pm 16 20 mph 1011mb 73f
8:54pm 18 22 mph 1011mb 73f
8:48pm 20 23 mph 1011mb 73f
8:42pm 21 23 mph 1011mb 73f
8:36pm 18 24 mph 1010.9mb 73f
8:30pm 22 26 mph 1010.9mb 73f
8:24pm 21 25 mph 1010.8mb 73f
8:18pm 22 26 mph 1010.8mb 73f
8:12pm 22 24 mph 1010.7mb 73f
8:06pm 20 23 mph 1010.7mb 74f
8:00pm 21 23 mph 1010.6mb 74f
7:54pm 14 16 mph 1010.5mb 73f
7:48pm 14 17 mph 1010.5mb 73f
7:42pm 16 18 mph 1010.4mb 73f
7:36pm 16 18 mph 1010.3mb 73f
7:30pm 15 18 mph 1010.2mb 73f
7:24pm 16 22 mph 1010.2mb 73f
7:18pm 18 22 mph 1010.2mb 73f
7:12pm 14 18 mph 1010.3mb 72f
7:06pm 15 17 mph 1010.4mb 71f
7:00pm 15 22 mph 1010.5mb 71f
6:54pm 20 23 mph 1010.5mb 71f
6:48pm 17 21 mph 1010.6mb 72f
6:42pm 21 26 mph 1010.5mb 73f
6:36pm 24 29 mph 1010.3mb 73f
6:30pm 15 22 mph 1010.4mb 73f
6:24pm 14 20 mph 1010.4mb 73f
6:18pm 13 20 mph 1010.2mb 73f
6:12pm 8 13 mph 1010.4mb 71f
6:06pm 10 13 mph 1010.4mb 72f
6:00pm 9 11 mph 1010.4mb 72f
5:54pm 10 18 mph 1010.4mb 72f
5:48pm 14 20 mph 1010.4mb 71f
5:42pm 15 23 mph 1010.4mb 69f
5:36pm 18 33 mph 1010.4mb 68f
5:30pm 26 34 mph 1010.7mb 69f
5:24pm 22 29 mph 1010.8mb 70f
5:18pm 18 23 mph 1010.6mb 73f
5:12pm 17 23 mph 1010.5mb 73f
5:06pm 18 21 mph 1010.6mb 73f
5:00pm 18 22 mph 1010.6mb 73f
4:54pm 18 25 mph 1010.4mb 73f
4:48pm 13 20 mph 1010.5mb 73f
4:42pm 16 22 mph 1010.5mb 73f
4:36pm 13 18 mph 1010.4mb 73f
4:30pm 14 18 mph 1010.4mb 73f
4:24pm 11 16 mph 1010.4mb 73f
4:18pm 13 16 mph 1010.5mb 72f
4:12pm 15 20 mph 1010.5mb 72f
4:06pm 15 17 mph 1010.5mb 71f
4:00pm 16 20 mph 1010.4mb 71f
3:54pm 14 18 mph 1010.3mb 72f
3:48pm 16 18 mph 1010.3mb 72f
3:42pm 17 23 mph 1010.5mb 71f
3:36pm 18 23 mph 1010.5mb 71f
3:30pm 21 24 mph 1010.6mb 71f
3:24pm 22 25 mph 1010.6mb 71f
3:18pm 20 25 mph 1010.7mb 72f
3:12pm 21 25 mph 1010.8mb 72f
3:06pm 20 23 mph 1010.8mb 72f
3:00pm 20 23 mph 1010.8mb 72f
2:54pm 15 28 mph 1010.9mb 71f
2:48pm 24 29 mph 1011mb 71f
2:42pm 25 28 mph 1011mb 71f
2:36pm 23 28 mph 1011.1mb 73f
2:30pm 21 26 mph 1011mb 73f
2:24pm 24 26 mph 1010.9mb 73f
2:18pm 22 25 mph 1010.8mb 73f
2:12pm 16 24 mph 1010.6mb 73f
2:06pm 16 22 mph 1010.7mb 73f
2:00pm 16 21 mph 1010.8mb 73f
1:54pm 14 22 mph 1010.7mb 73f
1:48pm 15 22 mph 1010.6mb 73f
1:42pm 14 21 mph 1010.7mb 73f
1:36pm 15 20 mph 1010.7mb 73f
1:30pm 15 20 mph 1010.8mb 73f
1:24pm 15 20 mph 1010.8mb 73f
1:18pm 14 18 mph 1011mb 72f
1:12pm 14 20 mph 1011mb 73f
1:06pm 13 18 mph 1011mb 73f
1:00pm 13 17 mph 1011mb 72f
12:54pm 11 18 mph 1011.2mb 72f
12:48pm 14 17 mph 1011.2mb 72f
12:42pm 13 17 mph 1011.2mb 72f
12:36pm 14 20 mph 1011.2mb 72f
12:30pm 13 18 mph 1011.2mb 72f
12:24pm 11 18 mph 1011.2mb 72f
12:18pm 13 18 mph 1011.2mb 72f
12:12pm 14 20 mph 1011.3mb 72f
12:06pm 16 20 mph 1011.4mb 71f
12:00pm 13 18 mph 1011.5mb 71f
11:54am 14 17 mph 1011.5mb 71f
11:48am 13 18 mph 1011.5mb 71f
11:42am 13 17 mph 1011.5mb 71f
11:36am 13 17 mph 1011.5mb 71f
11:30am 11 17 mph 1011.5mb 71f
11:24am 14 18 mph 1011.5mb 71f
11:18am 15 21 mph 1011.6mb 71f
11:12am 15 18 mph 1011.6mb 71f
11:06am 13 18 mph 1011.7mb 71f
11:00am 13 18 mph 1011.7mb 71f
10:54am 14 20 mph 1011.7mb 71f
10:48am 15 18 mph 1011.7mb 71f
10:42am 14 20 mph 1011.7mb 71f
10:36am 15 18 mph 1011.6mb 70f
10:30am 14 21 mph 1011.6mb 71f
10:24am 11 18 mph 1011.5mb 71f
10:18am 11 17 mph 1011.5mb 71f
10:12am 15 18 mph 1011.5mb 70f
10:06am 14 17 mph 1011.4mb 70f
10:00am 10 17 mph 1011.4mb 71f
9:54am 14 17 mph 1011.4mb 71f
9:48am 16 18 mph 1011.3mb 71f
9:42am 13 17 mph 1011.4mb 70f
9:36am 11 15 mph 1011.3mb 71f
9:30am 10 14 mph 1011.3mb 71f
9:24am 10 15 mph 1011.3mb 71f
9:18am 11 16 mph 1011.3mb 70f
9:12am 11 15 mph 1011.2mb 70f
9:06am 9 15 mph 1011.2mb 70f
9:00am 13 16 mph 1011.2mb 70f
8:54am 13 16 mph 1011.3mb 70f
8:48am 11 15 mph 1011.3mb 69f
8:42am 11 15 mph 1011.3mb 70f
8:36am 10 16 mph 1011.3mb 69f
8:30am 15 17 mph 1011.2mb 69f
8:24am 11 14 mph 1011.2mb 69f
8:18am 11 17 mph 1011.1mb 69f
8:12am 11 14 mph 1011.1mb 69f
8:06am 11 15 mph 1011.1mb 69f
8:00am 11 14 mph 1011.1mb 69f
7:54am 10 14 mph 1011.1mb 68f
7:48am 10 14 mph 1011.1mb 68f
7:42am 9 13 mph 1011.1mb 68f
7:36am 11 14 mph 1011mb 68f
7:30am 10 14 mph 1011mb 68f
7:24am 13 16 mph 1011mb 67f
7:18am 13 14 mph 1010.9mb 67f
7:12am 11 13 mph 1010.8mb 67f
7:06am 11 14 mph 1010.8mb 66f
7:00am 11 14 mph 1010.8mb 66f
6:54am 9 13 mph 1010.8mb 66f
6:48am 10 13 mph 1010.7mb 66f
6:42am 10 13 mph 1010.7mb 66f
6:36am 9 13 mph 1010.7mb 66f
6:30am 9 10 mph 1010.7mb 66f
6:24am 8 11 mph 1010.6mb 66f
6:18am 9 11 mph 1010.5mb 66f
6:12am 9 13 mph 1010.4mb 66f
6:06am 10 13 mph 1010.4mb 66f
6:00am 11 14 mph 1010.4mb 66f
5:54am 10 13 mph 1010.4mb 66f
5:48am 9 11 mph 1010.3mb 67f
5:42am 9 11 mph 1010.3mb 67f
5:36am 9 11 mph 1010.2mb 66f
5:30am 7 10 mph 1010.1mb 67f
5:24am 7 9 mph 1010mb 66f
5:18am 8 10 mph 1010.1mb 67f
5:12am 8 9 mph 1010mb 67f
5:06am 8 10 mph 1010mb 67f
5:00am 8 11 mph 1010mb 67f
4:54am 8 9 mph 1009.9mb 67f
4:48am 6 8 mph 1009.8mb 67f
4:42am 6 8 mph 1009.7mb 67f
4:36am 6 8 mph 1009.6mb 67f
4:30am 6 8 mph 1009.6mb 67f
4:24am 7 8 mph 1009.6mb 67f
4:18am 6 8 mph 1009.7mb 67f
4:12am 6 7 mph 1009.6mb 67f
4:06am 6 8 mph 1009.5mb 67f
4:00am 6 7 mph 1009.5mb 67f
3:54am 6 8 mph 1009.4mb 67f
3:48am 6 7 mph 1009.4mb 67f
3:42am 5 7 mph 1009.4mb 67f
3:36am 6 8 mph 1009.3mb 67f
3:30am 7 9 mph 1009.2mb 68f
3:24am 7 8 mph 1009.1mb 68f
3:18am 7 9 mph 1009mb 68f
3:12am 8 9 mph 1009mb 69f
3:06am 8 10 mph 1009mb 69f
3:00am 7 9 mph 1008.9mb 69f
2:54am 6 8 mph 1008.9mb 70f
2:48am 6 8 mph 1008.9mb 70f
2:42am 7 10 mph 1009mb 70f
2:36am 5 7 mph 1009mb 70f
2:30am 6 7 mph 1009mb 70f
2:24am 6
mph
1009mb 69f
2:18am 6 7 mph 1009mb 69f
2:12am 6 7 mph 1008.9mb 69f
2:06am 6 8 mph 1009mb 70f
2:00am 5 8 mph 1008.9mb 69f
1:54am 5 8 mph 1008.9mb 70f
1:48am  -  mph 1008.8mb 70f
1:42am  -  mph 1008.8mb 70f
1:36am  -  mph 1008.7mb 70f
1:30am 5 6 mph 1008.7mb 70f
1:24am 5
mph
1008.6mb 70f
1:18am 5 6 mph 1008.7mb 69f
1:12am 5 6 mph 1008.8mb 69f
1:06am 3 5 mph 1008.7mb 70f
1:00am 3 5 mph 1008.7mb 70f
12:54am 2 6 mph 1008.7mb 70f
12:48am 5 6 mph 1008.7mb 70f
12:42am 3 5 mph 1008.7mb 70f
12:36am 2 3 mph 1008.7mb 70f
12:30am 3 5 mph 1008.8mb 70f
12:24am 2 5 mph 1008.8mb 70f
12:18am 2 3 mph 1008.8mb 71f
12:12am 2 5 mph 1008.9mb 71f
12:06am 5 7 mph 1008.9mb 71f
12:00am 3 6 mph 1008.9mb 71f
Fri 07/31 11:54pm 5 7 mph 1008.9mb 71f
11:48pm 5 7 mph 1008.9mb 72f
11:42pm 5 9 mph 1008.9mb 72f
11:36pm 6 7 mph 1008.8mb 72f
11:30pm 5 6 mph 1008.8mb 72f
11:24pm 6 9 mph 1008.9mb 72f
11:18pm 7 9 mph 1009mb 72f
11:12pm 8 10 mph 1009mb 73f
11:06pm 6 9 mph 1009mb 73f
11:00pm 8 10 mph 1008.9mb 73f
10:54pm 7 9 mph 1008.9mb 73f
10:48pm 7
mph
1008.7mb 73f
10:42pm 6 8 mph 1008.6mb 73f
10:36pm 7 9 mph 1008.6mb 73f
10:30pm 8 9 mph 1008.7mb 73f
10:24pm 9 14 mph 1008.7mb 73f
10:18pm 6 15 mph 1008.7mb 73f
10:12pm 11 15 mph 1008.7mb 74f
10:06pm 16 20 mph 1008.7mb 74f
10:00pm 14 18 mph 1008.5mb 75f
9:54pm 11 20 mph 1008.4mb 75f
9:48pm 15 23 mph 1008.3mb 75f
9:42pm 17 22 mph 1008.3mb 75f
9:36pm 18 22 mph 1008.3mb 75f
9:30pm 16 23 mph 1008.4mb 75f
9:24pm 17 25 mph 1008.4mb 75f
9:18pm 18 26 mph 1008.3mb 75f
9:12pm 22 28 mph 1008.2mb 75f
9:06pm 20 26 mph 1008.1mb 76f
9:00pm 20 24 mph 1008.1mb 76f
8:54pm 16 24 mph 1008.1mb 76f
8:48pm 18 23 mph 1008.2mb 76f
8:42pm 20 23 mph 1008.2mb 76f
8:36pm 20 24 mph 1008.3mb 75f
8:30pm 21 25 mph 1008.3mb 75f
8:24pm 23 29 mph 1008.4mb 74f
8:18pm 24 29 mph 1008.4mb 75f
8:12pm 23 31 mph 1008.4mb 75f
8:06pm 24 32 mph 1008.4mb 75f
8:00pm 30 36 mph 1008.3mb 76f
7:54pm 21 24 mph 1008.3mb 76f
7:48pm 17 20 mph 1008.3mb 76f
7:42pm 14 17 mph 1008.2mb 76f
7:36pm 13 17 mph 1008.2mb 75f
7:30pm 13 15 mph 1008.3mb 75f
7:24pm 14 16 mph 1008.3mb 75f
7:18pm 13 15 mph 1008.4mb 75f
7:12pm 13 17 mph 1008.4mb 75f
7:06pm 15 18 mph 1008.4mb 75f
7:00pm 16 18 mph 1008.5mb 76f
6:54pm 16 20 mph 1008.4mb 76f
6:48pm 16 20 mph 1008.4mb 75f
6:42pm 17 22 mph 1008.4mb 75f
6:36pm 16 20 mph 1008.5mb 76f
6:00pm 18 25 mph 1008.7mb 76f
5:54pm 21 26 mph 1008.6mb 76f
5:48pm 15 22 mph 1008.5mb 76f
5:42pm 17 21 mph 1008.7mb 75f
5:36pm 17 20 mph 1008.9mb 75f
5:30pm 17 22 mph 1008.9mb 75f
5:24pm 15 20 mph 1008.9mb 76f
5:18pm 17 23 mph 1008.9mb 76f
5:12pm 16 22 mph 1008.9mb 76f
5:06pm 18 23 mph 1009mb 76f
5:00pm 15 22 mph 1009mb 76f
4:54pm 16 22 mph 1009mb 76f
4:48pm 15 22 mph 1008.9mb 76f
4:42pm 14 21 mph 1008.9mb 76f
4:36pm 16 24 mph 1009mb 76f
4:30pm 16 23 mph 1009.1mb 76f
4:24pm 15 23 mph 1009.1mb 76f
4:18pm 14 23 mph 1009.1mb 76f
4:12pm 15 22 mph 1009mb 76f
4:06pm 16 24 mph 1009mb 76f
4:00pm 20 23 mph 1009mb 76f
3:54pm 17 24 mph 1009.1mb 76f
3:48pm 17 24 mph 1009.1mb 76f
3:42pm 15 23 mph 1009.2mb 76f
3:36pm 17 23 mph 1009.3mb 76f
3:30pm 16 23 mph 1009.3mb 76f
3:24pm 16 22 mph 1009.4mb 76f
3:18pm 17 23 mph 1009.4mb 76f
3:12pm 20 25 mph 1009.4mb 76f
3:06pm 18 24 mph 1009.4mb 76f
3:00pm 17 23 mph 1009.5mb 76f
2:54pm 17 24 mph 1009.6mb 76f
2:48pm 16 26 mph 1009.7mb 76f
2:42pm 16 24 mph 1009.7mb 76f
2:36pm 17 24 mph 1009.8mb 76f
2:30pm 17 25 mph 1009.9mb 75f
2:24pm 16 24 mph 1009.9mb 76f
2:18pm 17 24 mph 1009.9mb 75f
2:12pm 20 26 mph 1010mb 75f
2:06pm 17 24 mph 1010mb 75f
2:00pm 20 24 mph 1010.1mb 75f
1:54pm 15 26 mph 1010.2mb 75f
1:48pm 18 25 mph 1010.3mb 75f
1:42pm 17 26 mph 1010.4mb 75f
1:36pm 16 25 mph 1010.4mb 75f
1:30pm 18 25 mph 1010.5mb 75f
1:24pm 18 25 mph 1010.5mb 75f
1:18pm 18 24 mph 1010.6mb 75f
1:12pm 17 25 mph 1010.6mb 75f
1:06pm 16 23 mph 1010.6mb 75f
1:00pm 16 24 mph 1010.7mb 75f
12:54pm 21 25 mph 1010.7mb 75f
12:48pm 21 28 mph 1010.7mb 75f
12:42pm 21 25 mph 1010.7mb 75f
12:36pm 22 25 mph 1010.8mb 75f
12:30pm 23 25 mph 1010.7mb 75f
12:24pm 20 24 mph 1010.8mb 75f
12:18pm 21 25 mph 1010.9mb 75f
12:12pm 21 25 mph 1010.9mb 74f
12:06pm 21 24 mph 1011mb 74f
12:00pm 17 23 mph 1011.1mb 75f
11:54am 16 22 mph 1011.1mb 75f
11:48am 17 23 mph 1011.2mb 74f
11:42am 20 22 mph 1011.3mb 74f
11:36am 17 22 mph 1011.4mb 75f
11:30am 17 21 mph 1011.4mb 75f
11:24am 14 18 mph 1011.4mb 75f
11:18am 14 18 mph 1011.5mb 75f
11:12am 15 20 mph 1011.5mb 75f
11:06am 13 20 mph 1011.6mb 75f
11:00am 13 20 mph 1011.6mb 75f
10:54am 14 20 mph 1011.6mb 75f
10:48am 14 17 mph 1011.7mb 75f
10:42am 11 18 mph 1011.7mb 75f
10:36am 14 20 mph 1011.7mb 74f
10:30am 14 21 mph 1011.8mb 74f
10:24am 13 18 mph 1011.9mb 74f
10:18am 15 18 mph 1012mb 74f
10:12am 14 20 mph 1012mb 74f
10:06am 15 21 mph 1012mb 74f
10:00am 13 17 mph 1011.9mb 74f
9:54am 13 16 mph 1011.9mb 74f
9:48am 9 13 mph 1011.9mb 74f
9:42am 8 10 mph 1012mb 74f
9:36am 9 10 mph 1011.9mb 73f
9:30am 9 11 mph 1011.9mb 73f
9:24am 9 11 mph 1011.9mb 73f
9:18am 10 11 mph 1012mb 73f
9:12am 9 11 mph 1012mb 73f
9:06am 10 11 mph 1012.1mb 73f
9:00am 11 13 mph 1012.1mb 73f
8:54am 10 13 mph 1012.2mb 73f
8:48am 9 11 mph 1012.2mb 73f
8:42am 9 11 mph 1012.2mb 73f
8:36am 9 10 mph 1012.3mb 72f
8:30am 9 11 mph 1012.3mb 72f
8:24am 9 10 mph 1012.4mb 72f
8:18am 8 11 mph 1012.4mb 72f
8:12am 8 10 mph 1012.5mb 73f
8:06am 8 9 mph 1012.5mb 73f
8:00am 7 10 mph 1012.5mb 72f
7:54am 8 10 mph 1012.4mb 72f
7:48am 8 10 mph 1012.5mb 72f
7:42am 8 9 mph 1012.6mb 72f
7:36am 8 10 mph 1012.6mb 72f
7:30am 7 9 mph 1012.6mb 72f
7:24am 7 10 mph 1012.6mb 72f
7:18am 5 9 mph 1012.7mb 72f
7:12am 7 9 mph 1012.7mb 72f
7:06am 6 7 mph 1012.7mb 73f
7:00am 5 7 mph 1012.6mb 72f
6:54am 3 6 mph 1012.6mb 72f
6:48am 6 7 mph 1012.6mb 72f
6:42am 5 6 mph 1012.5mb 72f
6:36am 3 6 mph 1012.5mb 72f
6:30am 3 7 mph 1012.5mb 72f
6:24am 3 6 mph 1012.5mb 71f
6:18am 5 6 mph 1012.5mb 71f
6:12am 5 6 mph 1012.4mb 71f
6:06am 3 5 mph 1012.4mb 71f
6:00am 3 5 mph 1012.4mb 70f
5:54am 3 5 mph 1012.4mb 70f
5:48am 1 2 mph 1012.4mb 70f
5:42am 2 3 mph 1012.4mb 70f
5:36am 2 3 mph 1012.3mb 69f
5:30am 2 5 mph 1012.3mb 69f
5:24am 3 5 mph 1012.2mb 69f
5:18am 1 2 mph 1012.2mb 69f
5:12am 1 3 mph 1012.1mb 69f
5:06am 2 6 mph 1012.1mb 69f
5:00am 5 7 mph 1012mb 70f
4:54am 6 7 mph 1012mb 70f
4:48am 6 7 mph 1012mb 70f
4:42am 6 7 mph 1012mb 70f
4:36am 6 7 mph 1011.9mb 70f
4:30am 6 7 mph 1011.9mb 70f
4:24am 7 9 mph 1011.9mb 70f
4:18am 6 7 mph 1011.9mb 70f
4:12am 5 7 mph 1011.9mb 70f
4:06am 6 8 mph 1011.9mb 70f
4:00am 7 8 mph 1011.8mb 70f
3:54am 7 8 mph 1011.8mb 70f
3:48am 7 9 mph 1011.7mb 70f
3:42am 7 8 mph 1011.7mb 70f
3:36am 6 9 mph 1011.8mb 70f
3:30am 8 10 mph 1011.7mb 70f
3:24am 9 10 mph 1011.7mb 70f
3:18am 8 10 mph 1011.7mb 70f
3:12am 9 10 mph 1011.7mb 70f
3:06am 9 10 mph 1011.7mb 70f
3:00am 9 10 mph 1011.7mb 70f
2:54am 9 11 mph 1011.7mb 70f
2:48am 9 11 mph 1011.6mb 70f
2:42am 9 11 mph 1011.7mb 71f
2:36am 10 13 mph 1011.7mb 71f
2:30am 10 14 mph 1011.7mb 71f
2:24am 13 14 mph 1011.6mb 71f
2:18am 11 14 mph 1011.6mb 71f
2:12am 13 14 mph 1011.7mb 71f
2:06am 11 14 mph 1011.6mb 71f
2:00am 13 14 mph 1011.6mb 72f
1:54am 13 15 mph 1011.6mb 72f
1:48am 13 16 mph 1011.5mb 72f
1:42am 14 16 mph 1011.5mb 72f
1:36am 13 15 mph 1011.5mb 73f
1:30am 14 16 mph 1011.5mb 73f
1:24am 14 17 mph 1011.4mb 73f
1:18am 14 15 mph 1011.3mb 74f
1:12am 14 15 mph 1011.3mb 74f
1:06am 14 17 mph 1011.3mb 74f
1:00am 13 15 mph 1011.3mb 74f
12:54am 13 16 mph 1011.4mb 75f
12:48am 14 17 mph 1011.4mb 75f
12:42am 15 17 mph 1011.4mb 75f
12:36am 14 16 mph 1011.3mb 75f
12:30am 13 15 mph 1011.4mb 75f
12:24am 13 14 mph 1011.4mb 75f
12:18am 10 14 mph 1011.4mb 74f
12:12am 13 16 mph 1011.4mb 74f
12:06am 14 15 mph 1011.4mb 74f
12:00am 13 14 mph 1011.4mb 74f
Thu 07/30 11:54pm 13 14 mph 1011.5mb 74f
11:48pm 13 14 mph 1011.4mb 74f
11:42pm 11 14 mph 1011.4mb 74f
11:36pm 13 15 mph 1011.4mb 74f
11:30pm 13 15 mph 1011.4mb 74f
11:24pm 11 14 mph 1011.4mb 74f
11:18pm 13 14 mph 1011.4mb 74f
11:12pm 13 15 mph 1011.4mb 74f
11:06pm 13 14 mph 1011.4mb 74f
11:00pm 11 14 mph 1011.4mb 74f
10:54pm 13 14 mph 1011.4mb 74f
10:48pm 13 14 mph 1011.4mb 74f
10:42pm 13 15 mph 1011.4mb 74f
10:36pm 13 14 mph 1011.4mb 74f
10:30pm 11 15 mph 1011.5mb 74f
10:24pm 11 14 mph 1011.5mb 74f
10:18pm 10 13 mph 1011.5mb 74f
10:12pm 10 13 mph 1011.5mb 74f
10:06pm 10 14 mph 1011.5mb 74f
10:00pm 11 14 mph 1011.5mb 74f
9:54pm 13 15 mph 1011.5mb 74f
9:48pm 13 15 mph 1011.6mb 74f
9:42pm 14 16 mph 1011.6mb 74f
9:36pm 14 16 mph 1011.6mb 74f
9:30pm 14 17 mph 1011.6mb 74f
9:24pm 15 17 mph 1011.6mb 74f
9:18pm 15 17 mph 1011.6mb 74f
9:12pm 15 17 mph 1011.6mb 75f
9:06pm 15 18 mph 1011.6mb 75f
9:00pm 16 20 mph 1011.6mb 75f
8:54pm 17 21 mph 1011.6mb 75f
8:48pm 16 20 mph 1011.5mb 75f
8:42pm 17 20 mph 1011.5mb 75f
8:36pm 17 21 mph 1011.4mb 75f
8:30pm 16 20 mph 1011.4mb 75f
8:24pm 17 20 mph 1011.4mb 75f
8:18pm 17 21 mph 1011.3mb 75f
8:12pm 18 21 mph 1011.3mb 75f
8:06pm 17 22 mph 1011.2mb 75f
8:00pm 17 22 mph 1011.2mb 75f
7:54pm 18 22 mph 1011.2mb 75f
7:48pm 18 22 mph 1011.2mb 75f
7:42pm 18 22 mph 1011.1mb 75f
7:36pm 20 23 mph 1011.1mb 75f
7:30pm 18 23 mph 1011mb 75f
7:24pm 22 24 mph 1011mb 75f
7:18pm 21 25 mph 1011mb 75f
7:12pm 22 25 mph 1011mb 75f
7:06pm 20 23 mph 1011mb 75f
7:00pm 21 24 mph 1011mb 75f
6:54pm 21 25 mph 1011mb 76f
6:48pm 22 26 mph 1010.9mb 76f
6:42pm 21 24 mph 1010.9mb 76f
6:36pm 22 26 mph 1011mb 76f
6:30pm 21 25 mph 1010.9mb 76f
6:24pm 21 24 mph 1010.9mb 76f
6:18pm 18 25 mph 1010.9mb 76f
6:12pm 22 25 mph 1010.9mb 76f
6:06pm 21 24 mph 1010.9mb 76f
6:00pm 22 25 mph 1010.9mb 76f
5:54pm 23 28 mph 1010.9mb 76f
5:48pm 21 26 mph 1010.9mb 76f
5:42pm 23 25 mph 1010.9mb 76f
5:36pm 22 26 mph 1010.8mb 76f
5:30pm 23 28 mph 1010.9mb 76f
5:24pm 22 26 mph 1010.8mb 76f
5:18pm 24 28 mph 1010.8mb 76f
5:12pm 23 26 mph 1010.8mb 76f
5:06pm 23 28 mph 1010.8mb 76f
5:00pm 23 26 mph 1010.9mb 76f
4:54pm 22 29 mph 1010.8mb 76f
4:48pm 23 28 mph 1010.8mb 76f
4:42pm 24 29 mph 1010.8mb 76f
4:36pm 23 28 mph 1010.8mb 76f
4:30pm 20 28 mph 1010.9mb 76f
4:24pm 18 26 mph 1010.9mb 76f
4:18pm 21 28 mph 1010.8mb 76f
4:12pm 23 26 mph 1010.8mb 76f
4:06pm 21 25 mph 1010.8mb 76f
4:00pm 20 26 mph 1010.8mb 76f
3:54pm 22 26 mph 1010.8mb 76f
3:48pm 20 26 mph 1010.7mb 76f
3:42pm 18 24 mph 1010.8mb 76f
3:36pm 17 23 mph 1010.8mb 76f
3:30pm 17 28 mph 1010.8mb 76f
3:24pm 17 24 mph 1010.8mb 76f
3:18pm 16 24 mph 1010.8mb 76f
3:12pm 18 26 mph 1010.8mb 76f
3:06pm 21 24 mph 1010.8mb 76f
3:00pm 18 28 mph 1010.8mb 76f
2:54pm 18 25 mph 1010.8mb 76f
2:48pm 18 24 mph 1010.8mb 76f
2:42pm 17 23 mph 1010.8mb 76f
2:36pm 17 24 mph 1010.8mb 76f
2:30pm 16 23 mph 1010.9mb 76f
2:24pm 16 23 mph 1010.9mb 76f
2:18pm 18 25 mph 1010.9mb 76f
2:12pm 17 24 mph 1010.9mb 76f
2:06pm 18 25 mph 1011mb 76f
2:00pm 18 24 mph 1011.1mb 76f
1:54pm 18 25 mph 1011.2mb 76f
1:48pm 18 24 mph 1011.1mb 76f
1:42pm 15 22 mph 1011.2mb 76f
1:36pm 17 22 mph 1011.2mb 75f
1:30pm 17 24 mph 1011.3mb 75f
1:24pm 16 23 mph 1011.4mb 75f
1:18pm 16 23 mph 1011.4mb 75f
1:12pm 15 22 mph 1011.4mb 75f
1:06pm 18 25 mph 1011.4mb 75f
1:00pm 15 22 mph 1011.5mb 75f
12:54pm 17 23 mph 1011.6mb 75f
12:48pm 17 24 mph 1011.6mb 75f
12:42pm 17 22 mph 1011.6mb 75f
12:36pm 16 24 mph 1011.6mb 75f
12:30pm 20 26 mph 1011.7mb 75f
12:24pm 18 25 mph 1011.6mb 75f
12:18pm 17 24 mph 1011.6mb 75f
12:12pm 17 25 mph 1011.6mb 75f
12:06pm 17 25 mph 1011.6mb 75f
12:00pm 17 24 mph 1011.7mb 75f
11:54am 16 24 mph 1011.6mb 75f
11:48am 16 23 mph 1011.6mb 74f
11:42am 17 22 mph 1011.7mb 74f
11:36am 17 22 mph 1011.7mb 74f
11:30am 13 21 mph 1011.7mb 75f
11:24am 17 22 mph 1011.7mb 74f
11:18am 16 21 mph 1011.7mb 74f
11:12am 15 22 mph 1011.7mb 74f
11:06am 14 20 mph 1011.7mb 74f
11:00am 15 22 mph 1011.8mb 74f
10:54am 15 21 mph 1011.7mb 74f
10:48am 14 21 mph 1011.7mb 74f
10:42am 15 21 mph 1011.6mb 74f
10:36am 14 21 mph 1011.6mb 74f
10:30am 15 21 mph 1011.6mb 74f
10:24am 14 20 mph 1011.6mb 74f
10:18am 14 20 mph 1011.6mb 74f
10:12am 11 20 mph 1011.5mb 74f
10:06am 15 20 mph 1011.4mb 74f
10:00am 13 20 mph 1011.4mb 74f
9:54am 16 22 mph 1011.4mb 74f
9:48am 17 23 mph 1011.4mb 74f
9:42am 18 22 mph 1011.4mb 74f
9:36am 16 21 mph 1011.3mb 74f
9:30am 17 20 mph 1011.2mb 74f
9:24am 17 20 mph 1011.1mb 74f
9:18am 17 20 mph 1011.1mb 74f
9:12am 15 17 mph 1011.1mb 74f
9:06am 14 16 mph 1011.1mb 74f
9:00am 13 14 mph - -
8:42am 5 8 mph 1011.1mb 75f
8:36am 6 9 mph 1011.2mb 74f
8:30am 8 9 mph 1011.2mb 74f
8:24am 7 8 mph 1011.2mb 74f
8:18am 7 8 mph 1011.2mb 74f
8:06am 9 11 mph 1011.2mb 73f
8:00am 9 13 mph 1011.2mb 73f
7:54am 10 13 mph 1011.2mb 73f
7:42am  -  mph - 72f
7:36am  -  mph - 72f
7:30am  -  mph - 72f
7:24am  -  mph - 72f
7:18am  -  mph - 72f
7:12am  -  mph - 72f
7:06am  -  mph - 72f
7:00am  -  mph - 73f
6:54am  -  mph - 73f
6:48am  -  mph - 73f
6:30am  -  mph - 73f
6:24am  -  mph - 74f
6:18am  -  mph - 74f
6:12am  -  mph - 74f
6:06am  -  mph - 74f
6:00am  -  mph - 74f
5:54am  -  mph - 74f
5:48am  -  mph - 75f
5:42am  -  mph - 75f
5:36am  -  mph - 75f
5:30am  -  mph - 75f
5:24am  -  mph - 75f
5:18am  -  mph - 76f
5:12am  -  mph - 76f
5:06am  -  mph - 76f
5:00am  -  mph - 76f
4:54am  -  mph - 76f
4:42am  -  mph 1010.1mb 76f
4:36am  -  mph 1010mb 75f
4:30am  -  mph 1010mb 75f
4:24am  -  mph 1010mb 75f
4:18am  -  mph - 76f
4:12am  -  mph - 76f
4:06am  -  mph - 76f
4:00am  -  mph - 76f
3:54am  -  mph - 75f
3:48am  -  mph - 76f
3:42am  -  mph - 76f
3:36am  -  mph - 76f
3:30am  -  mph - 76f
3:24am  -  mph - 76f
3:18am  -  mph - 76f
3:12am  -  mph - 76f
3:06am  -  mph - 76f
3:00am  -  mph 1009.6mb 76f
2:54am  -  mph 1009.6mb 77f
2:48am  -  mph - 77f
2:42am  -  mph - 77f
2:36am  -  mph - 77f
2:30am  -  mph - 77f
2:24am  -  mph - 78f
2:18am  -  mph - 78f
2:12am  -  mph - 78f
2:06am  -  mph - 78f
2:00am  -  mph - 78f
1:54am  -  mph - 78f
1:48am  -  mph - 78f
1:42am  -  mph - 78f
1:36am  -  mph - 78f
1:30am  -  mph 1009.7mb 78f
1:24am  -  mph 1009.7mb 78f
1:18am  -  mph 1009.7mb 78f
1:12am  -  mph 1009.7mb 78f
1:06am  -  mph 1009.7mb 78f
1:00am  -  mph 1009.7mb 78f
12:54am  -  mph 1009.8mb 78f
12:48am  -  mph 1009.9mb 78f
12:18am  -  mph - 78f
12:12am  -  mph - 78f
12:06am  -  mph - 78f
12:00am  -  mph - 78f
Wed 07/29 11:54pm  -  mph - 78f
11:48pm  -  mph - 79f
11:42pm  -  mph - 79f
11:36pm  -  mph - 79f
11:30pm  -  mph - 79f
11:24pm  -  mph - 79f
11:18pm  -  mph - 79f
11:12pm  -  mph - 79f
11:06pm  -  mph - 79f
11:00pm  -  mph - 79f
10:54pm  -  mph - 79f
10:48pm  -  mph - 79f
10:42pm  -  mph - 79f
10:36pm  -  mph - 78f
10:30pm  -  mph - 79f
10:24pm  -  mph - 78f
10:18pm  -  mph - 78f
10:12pm  -  mph - 78f
10:06pm  -  mph - 78f
10:00pm  -  mph - 78f
9:54pm  -  mph - 79f
9:48pm  -  mph - 79f
9:42pm  -  mph - 79f
9:36pm  -  mph - 79f
9:30pm  -  mph - 79f
9:24pm  -  mph - 79f
9:18pm  -  mph - 79f
9:12pm  -  mph - 79f
9:06pm  -  mph - 79f
9:00pm  -  mph - 79f
8:54pm  -  mph - 78f
8:48pm 6 7 mph 1011mb 78f
8:42pm 6 7 mph 1010.9mb 78f
8:36pm 5 6 mph 1011mb 78f
8:30pm  -  mph - 78f
8:24pm  -  mph - 78f
8:18pm  -  mph - 78f
8:12pm  -  mph - 78f
8:06pm  -  mph - 78f
8:00pm  -  mph - 78f
7:54pm  -  mph - 78f
7:48pm 6 8 mph 1011.2mb 78f
7:42pm 7 9 mph 1011.2mb 78f
7:36pm 9 10 mph 1011.2mb 79f
7:30pm  -  mph 1011.2mb 79f
7:24pm  -  mph 1011.2mb 79f
7:18pm  -  mph 1011.2mb 79f
7:12pm  -  mph 1011.3mb 79f
7:06pm  -  mph 1011.3mb 79f
7:00pm  -  mph - 79f
6:54pm  -  mph - 79f
6:48pm  -  mph - 80f
6:42pm  -  mph - 80f
6:36pm  -  mph - 80f
6:30pm  -  mph - 81f
6:24pm  -  mph - 81f
6:18pm  -  mph - 82f
6:12pm  -  mph - 82f
6:06pm  -  mph - 82f
6:00pm 5 6 mph 1011.1mb 83f
5:54pm 5 7 mph 1011.1mb 83f
5:48pm 6
mph
1011.1mb 83f
5:42pm 6 7 mph 1011.1mb 83f
5:36pm 7
mph
1011.2mb 84f
5:30pm  -  mph - 84f
5:24pm  -  mph - 84f
5:18pm  -  mph - 85f
5:12pm  -  mph - 85f
5:06pm  -  mph - 84f
5:00pm  -  mph - 85f
4:54pm  -  mph - 85f
4:48pm  -  mph - 85f
4:42pm  -  mph - 83f
4:36pm  -  mph - 85f
4:30pm  -  mph - 86f
4:24pm  -  mph - 85f
4:18pm  -  mph - 85f
4:12pm  -  mph - 84f
4:06pm  -  mph - 84f
4:00pm  -  mph 1011.7mb 84f
3:54pm  -  mph 1011.8mb 84f
3:48pm  -  mph 1011.7mb 84f
3:42pm  -  mph 1011.8mb 84f
3:36pm  -  mph 1011.8mb 83f
3:30pm  -  mph 1011.8mb 84f
3:24pm  -  mph 1011.8mb 84f
3:18pm  -  mph - 83f
3:12pm  -  mph - 83f
3:06pm  -  mph - 84f
3:00pm  -  mph - 84f
2:54pm  -  mph - 83f
2:48pm  -  mph - 84f
2:42pm  -  mph - 84f
2:36pm  -  mph - 83f
2:30pm  -  mph - 83f
2:24pm  -  mph - 83f
2:18pm  -  mph - 84f
2:12pm  -  mph - 83f
2:06pm  -  mph - 83f
2:00pm  -  mph - 83f
1:54pm  -  mph - 83f
1:48pm  -  mph - 83f
1:42pm  -  mph - 83f
1:36pm  -  mph - 83f
1:30pm  -  mph - 83f
1:24pm  -  mph - 83f
1:18pm  -  mph - 83f
1:12pm  -  mph - 83f
1:06pm  -  mph - 83f
1:00pm  -  mph - 83f
12:54pm  -  mph - 83f
12:48pm  -  mph - 82f
12:42pm  -  mph - 82f
12:36pm  -  mph - 81f
12:30pm  -  mph - 80f
12:24pm  -  mph - 80f
12:18pm 2 3 mph 1014mb 81f
12:12pm 2 3 mph 1014.1mb 82f
12:06pm 2 3 mph 1014.1mb 83f
12:00pm 2 3 mph 1014.2mb 83f
11:54am 1 2 mph 1014.3mb 83f
11:48am 1
mph
1014.3mb 83f
10:54am 1
mph
1014.8mb 79f
10:48am  -  1 mph 1014.9mb 80f
10:42am  -  mph 1014.9mb 81f
10:36am  -  1 mph 1014.9mb 80f
10:30am  -  1 mph 1014.9mb 80f
10:24am  -  1 mph 1014.9mb 80f
10:18am 1 2 mph 1014.9mb 80f
10:12am 2
mph
1015mb 80f
10:06am 1 2 mph 1015mb 80f
10:00am 1 2 mph 1015mb 80f
9:54am 2
mph
1015mb 79f
9:48am 1 2 mph 1015mb 79f
9:42am 1 2 mph 1014.9mb 78f
9:36am 1 2 mph 1015mb 79f
9:30am 2 3 mph 1015mb 78f
9:24am 1 3 mph 1015mb 79f
9:18am  -  mph 1015.1mb 79f
9:12am  -  2 mph 1015mb 78f
9:06am 1 2 mph 1015mb 77f
9:00am 1
mph
1015mb 77f
8:54am 1 2 mph 1015mb 77f
8:48am 1 3 mph 1015.1mb 76f
8:42am 2
mph
1015.1mb 76f
8:36am 2 3 mph 1015.2mb 76f
8:30am 2 5 mph 1015.3mb 76f